createdAt,value
2017-05-17T00:02:27.647Z,13.80
2017-05-17T00:04:55.851Z,13.70
2017-05-17T00:07:24.068Z,13.70
2017-05-17T00:09:52.300Z,13.70
2017-05-17T00:12:20.516Z,13.70
2017-05-17T00:14:48.725Z,13.60
2017-05-17T00:17:17.752Z,13.60
2017-05-17T00:19:45.955Z,13.60
2017-05-17T00:22:14.163Z,13.50
2017-05-17T00:24:43.156Z,13.50
2017-05-17T00:27:11.360Z,13.40
2017-05-17T00:29:39.568Z,13.40
2017-05-17T00:32:07.803Z,13.40
2017-05-17T00:34:36.015Z,13.30
2017-05-17T00:37:16.132Z,13.30
2017-05-17T00:39:56.284Z,13.30
2017-05-17T00:42:36.427Z,13.20
2017-05-17T00:45:17.322Z,13.20
2017-05-17T00:47:57.495Z,13.10
2017-05-17T00:50:37.557Z,13.10
2017-05-17T00:53:05.779Z,13.10
2017-05-17T00:55:34.731Z,13.10
2017-05-17T00:58:02.935Z,13.00
2017-05-17T01:00:31.924Z,13.00
2017-05-17T01:03:00.876Z,12.90
2017-05-17T01:05:29.091Z,12.90
2017-05-17T01:07:58.064Z,12.90
2017-05-17T01:10:27.023Z,12.90
2017-05-17T01:12:55.226Z,12.90
2017-05-17T01:15:23.479Z,12.90
2017-05-17T01:17:51.675Z,12.80
2017-05-17T01:20:20.627Z,12.70
2017-05-17T01:22:48.866Z,12.70
2017-05-17T01:25:17.079Z,12.70
2017-05-17T01:27:45.291Z,12.70
2017-05-17T01:30:14.271Z,12.70
2017-05-17T01:32:42.483Z,12.70
2017-05-17T01:35:10.695Z,12.70
2017-05-17T01:37:38.927Z,12.70
2017-05-17T01:40:07.144Z,12.60
2017-05-17T01:42:35.347Z,12.60
2017-05-17T01:45:03.591Z,12.60
2017-05-17T01:47:31.795Z,12.50
2017-05-17T01:50:00.007Z,12.50
2017-05-17T01:52:28.236Z,12.50
2017-05-17T01:54:56.442Z,12.40
2017-05-17T01:57:24.657Z,12.40
2017-05-17T01:59:52.900Z,12.40
2017-05-17T02:02:21.111Z,12.40
2017-05-17T02:04:49.321Z,12.30
2017-05-17T02:07:18.288Z,12.20
2017-05-17T02:09:46.499Z,12.20
2017-05-17T02:12:15.455Z,12.20
2017-05-17T02:14:43.705Z,12.20
2017-05-17T02:17:11.923Z,12.30
2017-05-17T02:19:40.875Z,12.20
2017-05-17T02:22:09.104Z,12.30
2017-05-17T02:24:38.051Z,12.30
2017-05-17T02:27:06.260Z,12.30
2017-05-17T02:29:35.239Z,12.20
2017-05-17T02:32:03.448Z,12.20
2017-05-17T02:34:31.659Z,12.10
2017-05-17T02:36:59.897Z,12.10
2017-05-17T02:39:28.174Z,12.10
2017-05-17T02:41:56.384Z,12.10
2017-05-17T02:44:24.612Z,12.10
2017-05-17T02:46:52.832Z,12.00
2017-05-17T02:49:21.044Z,11.90
2017-05-17T02:51:50.031Z,11.80
2017-05-17T02:54:18.235Z,11.80
2017-05-17T02:56:46.443Z,11.80
2017-05-17T02:59:14.679Z,11.80
2017-05-17T03:01:42.896Z,11.90
2017-05-17T03:04:11.116Z,11.80
2017-05-17T03:06:40.107Z,11.80
2017-05-17T03:09:09.069Z,11.70
2017-05-17T03:11:37.280Z,11.80
2017-05-17T03:14:05.516Z,11.80
2017-05-17T03:16:33.723Z,11.70
2017-05-17T03:19:02.688Z,11.70
2017-05-17T03:21:30.916Z,11.60
2017-05-17T03:23:59.127Z,11.70
2017-05-17T03:26:27.343Z,11.60
2017-05-17T03:28:56.315Z,11.60
2017-05-17T03:31:25.274Z,11.70
2017-05-17T03:33:53.484Z,11.70
2017-05-17T03:36:22.471Z,11.70
2017-05-17T03:38:51.430Z,11.60
2017-05-17T03:41:19.636Z,11.70
2017-05-17T03:43:47.875Z,11.70
2017-05-17T03:46:16.085Z,11.70
2017-05-17T03:48:44.372Z,11.60
2017-05-17T03:51:13.344Z,11.50
2017-05-17T03:53:41.564Z,11.50
2017-05-17T03:56:09.774Z,11.50
2017-05-17T03:58:38.043Z,11.60
2017-05-17T04:01:06.247Z,11.60
2017-05-17T04:03:34.450Z,11.60
2017-05-17T04:06:02.700Z,11.60
2017-05-17T04:08:31.655Z,11.50
2017-05-17T04:10:59.867Z,11.50
2017-05-17T04:13:28.113Z,11.50
2017-05-17T04:15:56.328Z,11.40
2017-05-17T04:18:25.283Z,11.40
2017-05-17T04:20:53.519Z,11.50
2017-05-17T04:23:21.737Z,11.50
2017-05-17T04:25:49.939Z,11.60
2017-05-17T04:28:18.935Z,11.70
2017-05-17T04:30:47.887Z,11.80
2017-05-17T04:33:16.094Z,11.90
2017-05-17T04:35:44.339Z,12.00
2017-05-17T04:38:12.553Z,12.00
2017-05-17T04:40:41.515Z,12.00
2017-05-17T04:43:09.755Z,12.10
2017-05-17T04:45:37.968Z,12.30
2017-05-17T04:48:06.175Z,12.30
2017-05-17T04:50:35.151Z,12.30
2017-05-17T04:53:03.359Z,12.40
2017-05-17T04:55:31.573Z,12.40
2017-05-17T04:57:59.820Z,12.50
2017-05-17T05:00:28.029Z,12.60
2017-05-17T05:02:56.240Z,12.70
2017-05-17T05:05:25.222Z,12.80
2017-05-17T05:07:54.175Z,12.90
2017-05-17T05:10:22.385Z,13.00
2017-05-17T05:12:50.614Z,13.10
2017-05-17T05:15:18.864Z,13.30
2017-05-17T05:17:47.095Z,14.10
2017-05-17T05:20:15.340Z,15.60
2017-05-17T05:22:43.707Z,16.50
2017-05-17T05:25:11.962Z,15.60
2017-05-17T05:27:40.175Z,16.10
2017-05-17T05:30:08.384Z,16.60
2017-05-17T05:32:37.340Z,17.20
2017-05-17T05:35:05.573Z,19.10
2017-05-17T05:37:33.788Z,20.10
2017-05-17T05:40:01.996Z,21.30
2017-05-17T05:42:31.059Z,22.80
2017-05-17T05:44:59.267Z,24.70
2017-05-17T05:47:28.224Z,26.00
2017-05-17T05:49:56.460Z,26.40
2017-05-17T05:52:25.448Z,25.90
2017-05-17T05:54:53.623Z,27.30
2017-05-17T05:57:22.607Z,26.90
2017-05-17T05:59:51.568Z,25.90
2017-05-17T06:02:19.774Z,25.70
2017-05-17T06:04:48.764Z,26.90
2017-05-17T06:07:17.715Z,28.20
2017-05-17T06:09:45.924Z,28.30
2017-05-17T06:12:14.908Z,26.30
2017-05-17T06:14:43.859Z,27.50
2017-05-17T06:17:12.072Z,27.90
2017-05-17T06:19:41.060Z,28.70
2017-05-17T06:22:10.016Z,29.00
2017-05-17T06:24:38.227Z,30.30
2017-05-17T06:27:07.220Z,26.80
2017-05-17T06:29:36.176Z,28.50
2017-05-17T06:32:04.408Z,28.60
2017-05-17T06:34:32.635Z,25.90
2017-05-17T06:37:00.850Z,26.10
2017-05-17T06:39:29.804Z,26.00
2017-05-17T06:41:58.010Z,24.30
2017-05-17T06:44:26.227Z,26.50
2017-05-17T06:46:54.431Z,24.70
2017-05-17T06:49:22.648Z,24.60
2017-05-17T06:51:50.860Z,25.60
2017-05-17T06:54:19.069Z,25.10
2017-05-17T06:56:48.428Z,25.40
2017-05-17T06:59:16.660Z,24.20
2017-05-17T07:01:45.615Z,24.80
2017-05-17T07:04:13.819Z,25.40
2017-05-17T07:06:42.779Z,24.60
2017-05-17T07:09:10.987Z,24.10
2017-05-17T07:11:39.219Z,22.90
2017-05-17T07:14:07.423Z,24.40
2017-05-17T07:16:36.379Z,25.40
2017-05-17T07:19:04.591Z,24.30
2017-05-17T07:21:33.548Z,23.30
2017-05-17T07:24:01.752Z,23.90
2017-05-17T07:26:30.710Z,25.10
2017-05-17T07:28:58.915Z,24.80
2017-05-17T07:31:27.879Z,24.30
2017-05-17T07:33:56.084Z,24.60
2017-05-17T07:36:25.037Z,24.40
2017-05-17T07:38:53.257Z,24.20
2017-05-17T07:41:21.485Z,24.70
2017-05-17T07:43:49.696Z,25.60
2017-05-17T07:46:18.651Z,25.20
2017-05-17T07:48:46.865Z,25.80
2017-05-17T07:51:15.819Z,26.20
2017-05-17T07:53:44.031Z,25.90
2017-05-17T07:56:12.979Z,25.70
2017-05-17T07:58:41.195Z,25.00
2017-05-17T08:01:10.196Z,25.30
2017-05-17T08:03:39.155Z,26.10
2017-05-17T08:06:07.368Z,25.20
2017-05-17T08:08:36.320Z,25.30
2017-05-17T08:11:04.533Z,25.10
2017-05-17T08:13:33.503Z,24.60
2017-05-17T08:16:02.464Z,24.40
2017-05-17T08:18:30.671Z,24.00
2017-05-17T08:20:59.624Z,24.80
2017-05-17T08:23:27.836Z,24.80
2017-05-17T08:25:56.792Z,25.40
2017-05-17T08:28:25.006Z,25.20
2017-05-17T08:30:54.467Z,26.00
2017-05-17T08:33:22.680Z,25.90
2017-05-17T08:35:51.636Z,25.80
2017-05-17T08:38:19.843Z,26.20
2017-05-17T08:40:48.818Z,26.90
2017-05-17T08:43:17.026Z,27.40
2017-05-17T08:45:45.979Z,27.30
2017-05-17T08:48:14.191Z,29.20
2017-05-17T08:50:43.144Z,29.00
2017-05-17T08:53:11.359Z,29.10
2017-05-17T08:55:39.580Z,29.60
2017-05-17T08:58:07.795Z,28.90
2017-05-17T09:00:36.772Z,29.00
2017-05-17T09:03:05.084Z,27.30
2017-05-17T09:05:33.548Z,28.20
2017-05-17T09:08:02.500Z,27.80
2017-05-17T09:10:30.704Z,28.20
2017-05-17T09:12:59.660Z,28.80
2017-05-17T09:15:27.882Z,28.30
2017-05-17T09:17:56.849Z,28.60
2017-05-17T09:20:25.056Z,29.40
2017-05-17T09:22:53.267Z,30.40
2017-05-17T09:25:21.479Z,29.50
2017-05-17T09:27:50.436Z,30.00
2017-05-17T09:30:18.644Z,30.20
2017-05-17T09:32:47.600Z,29.90
2017-05-17T09:35:15.811Z,30.00
2017-05-17T09:37:44.763Z,29.40
2017-05-17T09:40:12.992Z,29.70
2017-05-17T09:42:41.945Z,30.40
2017-05-17T09:45:10.152Z,30.40
2017-05-17T09:47:39.121Z,30.20
2017-05-17T09:50:07.323Z,29.90
2017-05-17T09:52:35.544Z,29.90
2017-05-17T09:55:03.756Z,30.10
2017-05-17T09:57:32.712Z,30.60
2017-05-17T10:00:00.925Z,31.20
2017-05-17T10:02:29.891Z,30.90
2017-05-17T10:04:58.106Z,29.50
2017-05-17T10:07:26.339Z,30.30
2017-05-17T10:09:54.548Z,30.90
2017-05-17T10:12:22.763Z,29.50
2017-05-17T10:14:50.985Z,30.10
2017-05-17T10:17:19.936Z,30.70
2017-05-17T10:19:48.153Z,30.50
2017-05-17T10:22:17.099Z,29.90
2017-05-17T10:24:45.320Z,30.70
2017-05-17T10:27:14.276Z,30.90
2017-05-17T10:29:42.493Z,31.10
2017-05-17T10:32:10.708Z,30.00
2017-05-17T10:34:38.923Z,30.30
2017-05-17T10:37:07.874Z,29.90
2017-05-17T10:39:36.104Z,30.90
2017-05-17T10:42:04.324Z,30.20
2017-05-17T10:44:32.532Z,29.70
2017-05-17T10:47:01.492Z,30.70
2017-05-17T10:49:29.699Z,30.10
2017-05-17T10:51:58.651Z,31.30
2017-05-17T10:54:26.855Z,31.60
2017-05-17T10:56:55.068Z,31.40
2017-05-17T10:59:23.275Z,30.60
2017-05-17T11:01:51.482Z,29.40
2017-05-17T11:04:20.439Z,30.20
2017-05-17T11:06:49.490Z,29.20
2017-05-17T11:09:18.436Z,28.60
2017-05-17T11:11:46.671Z,28.70
2017-05-17T11:14:14.880Z,29.80
2017-05-17T11:16:43.087Z,30.00
2017-05-17T11:19:12.048Z,28.80
2017-05-17T11:21:40.263Z,28.90
2017-05-17T11:24:09.216Z,29.70
2017-05-17T11:26:37.424Z,30.30
2017-05-17T11:29:06.375Z,30.70
2017-05-17T11:31:34.580Z,31.20
2017-05-17T11:34:03.539Z,30.90
2017-05-17T11:36:31.759Z,31.10
2017-05-17T11:39:00.711Z,31.80
2017-05-17T11:41:28.919Z,30.30
2017-05-17T11:43:57.879Z,30.90
2017-05-17T11:46:26.087Z,30.50
2017-05-17T11:48:55.040Z,30.80
2017-05-17T11:51:23.247Z,30.30
2017-05-17T11:53:52.203Z,31.40
2017-05-17T11:56:20.411Z,31.30
2017-05-17T11:58:49.389Z,30.00
2017-05-17T12:01:18.352Z,30.50
2017-05-17T12:03:46.563Z,30.60
2017-05-17T12:06:14.776Z,30.90
2017-05-17T12:08:42.995Z,30.90
2017-05-17T12:11:11.213Z,31.00
2017-05-17T12:13:39.419Z,30.20
2017-05-17T12:16:07.635Z,29.30
2017-05-17T12:18:36.223Z,29.70
2017-05-17T12:21:05.186Z,30.00
2017-05-17T12:23:33.388Z,30.60
2017-05-17T12:26:01.616Z,30.40
2017-05-17T12:28:29.823Z,30.00
2017-05-17T12:30:58.783Z,30.10
2017-05-17T12:33:26.992Z,29.30
2017-05-17T12:35:55.947Z,29.40
2017-05-17T12:38:24.161Z,29.40
2017-05-17T12:40:53.112Z,29.30
2017-05-17T12:43:21.320Z,29.70
2017-05-17T12:45:50.279Z,30.00
2017-05-17T12:48:18.492Z,30.40
2017-05-17T12:50:47.454Z,30.50
2017-05-17T12:53:15.672Z,30.50
2017-05-17T12:55:43.892Z,30.10
2017-05-17T12:58:12.117Z,29.70
2017-05-17T13:00:41.058Z,30.20
2017-05-17T13:03:09.276Z,30.30
2017-05-17T13:05:38.224Z,30.50
2017-05-17T13:08:06.455Z,30.70
2017-05-17T13:10:34.667Z,30.40
2017-05-17T13:13:02.881Z,30.10
2017-05-17T13:15:31.850Z,29.80
2017-05-17T13:18:00.056Z,30.40
2017-05-17T13:20:29.024Z,30.30
2017-05-17T13:22:57.232Z,29.90
2017-05-17T13:25:25.448Z,29.50
2017-05-17T13:27:53.656Z,29.00
2017-05-17T13:30:22.619Z,28.90
2017-05-17T13:32:50.823Z,29.40
2017-05-17T13:35:19.778Z,28.90
2017-05-17T13:37:47.988Z,28.70
2017-05-17T13:40:16.959Z,29.30
2017-05-17T13:42:45.167Z,29.70
2017-05-17T13:45:14.139Z,29.30
2017-05-17T13:47:43.104Z,28.80
2017-05-17T13:50:11.319Z,29.00
2017-05-17T13:52:40.271Z,29.00
2017-05-17T13:55:08.487Z,28.70
2017-05-17T13:57:37.448Z,28.70
2017-05-17T14:00:05.651Z,28.50
2017-05-17T14:02:34.611Z,28.80
2017-05-17T14:05:02.819Z,28.60
2017-05-17T14:07:31.789Z,28.60
2017-05-17T14:10:00.756Z,28.90
2017-05-17T14:12:29.032Z,29.20
2017-05-17T14:14:57.241Z,28.50
2017-05-17T14:17:26.204Z,28.40
2017-05-17T14:19:54.415Z,28.50
2017-05-17T14:22:23.397Z,28.80
2017-05-17T14:24:52.354Z,28.90
2017-05-17T14:27:20.577Z,28.70
2017-05-17T14:29:49.526Z,28.50
2017-05-17T14:32:17.738Z,28.70
2017-05-17T14:34:46.692Z,28.70
2017-05-17T14:37:14.903Z,28.60
2017-05-17T14:39:43.947Z,28.80
2017-05-17T14:42:12.156Z,28.70
2017-05-17T14:44:40.363Z,28.60
2017-05-17T14:47:08.593Z,28.50
2017-05-17T14:49:36.805Z,28.50
2017-05-17T14:52:05.021Z,28.40
2017-05-17T14:54:33.236Z,28.40
2017-05-17T14:57:02.190Z,28.40
2017-05-17T14:59:30.403Z,28.40
2017-05-17T15:01:59.360Z,28.20
2017-05-17T15:04:27.572Z,28.30
2017-05-17T15:06:56.519Z,28.10
2017-05-17T15:09:24.736Z,28.10
2017-05-17T15:11:53.685Z,28.10
2017-05-17T15:14:21.900Z,28.10
2017-05-17T15:16:50.866Z,28.00
2017-05-17T15:19:19.068Z,28.00
2017-05-17T15:21:48.043Z,28.10
2017-05-17T15:24:16.259Z,28.00
2017-05-17T15:26:44.484Z,28.00
2017-05-17T15:29:12.695Z,28.00
2017-05-17T15:31:40.911Z,27.90
2017-05-17T15:34:09.120Z,28.00
2017-05-17T15:36:38.079Z,27.90
2017-05-17T15:39:06.296Z,27.80
2017-05-17T15:41:35.243Z,27.90
2017-05-17T15:44:03.459Z,27.80
2017-05-17T15:46:32.407Z,27.70
2017-05-17T15:49:00.624Z,27.80
2017-05-17T15:51:29.572Z,27.80
2017-05-17T15:53:57.784Z,27.90
2017-05-17T15:56:26.735Z,27.70
2017-05-17T15:58:54.955Z,27.80
2017-05-17T16:01:23.912Z,27.80
2017-05-17T16:03:52.121Z,27.60
2017-05-17T16:06:21.067Z,27.50
2017-05-17T16:08:49.295Z,27.70
2017-05-17T16:11:17.496Z,27.70
2017-05-17T16:13:45.713Z,27.70
2017-05-17T16:16:13.924Z,27.40
2017-05-17T16:18:42.134Z,27.40
2017-05-17T16:21:10.356Z,27.40
2017-05-17T16:23:39.300Z,27.30
2017-05-17T16:26:07.516Z,27.40
2017-05-17T16:28:36.488Z,27.30
2017-05-17T16:31:04.704Z,27.30
2017-05-17T16:33:32.911Z,27.30
2017-05-17T16:36:01.126Z,27.30
2017-05-17T16:38:30.080Z,27.20
2017-05-17T16:40:58.316Z,27.30
2017-05-17T16:43:26.526Z,27.20
2017-05-17T16:45:54.740Z,27.20
2017-05-17T16:48:23.696Z,27.10
2017-05-17T16:50:51.903Z,27.10
2017-05-17T16:53:20.858Z,27.10
2017-05-17T16:55:49.068Z,27.10
2017-05-17T16:58:17.281Z,27.10
2017-05-17T17:00:46.238Z,26.90
2017-05-17T17:03:14.451Z,26.90
2017-05-17T17:05:42.662Z,26.80
2017-05-17T17:08:10.880Z,26.80
2017-05-17T17:10:39.832Z,26.80
2017-05-17T17:13:08.048Z,26.90
2017-05-17T17:15:36.995Z,26.70
2017-05-17T17:18:05.227Z,26.80
2017-05-17T17:20:33.448Z,26.70
2017-05-17T17:23:01.656Z,26.60
2017-05-17T17:25:30.607Z,26.60
2017-05-17T17:27:58.819Z,26.50
2017-05-17T17:30:27.776Z,26.50
2017-05-17T17:32:55.984Z,26.50
2017-05-17T17:35:24.939Z,26.50
2017-05-17T17:37:53.148Z,26.40
2017-05-17T17:40:22.115Z,26.40
2017-05-17T17:42:50.315Z,26.40
2017-05-17T17:45:19.275Z,26.30
2017-05-17T17:47:47.479Z,26.20
2017-05-17T17:50:16.451Z,26.10
2017-05-17T17:52:44.656Z,26.10
2017-05-17T17:55:13.608Z,26.00
2017-05-17T17:57:41.821Z,26.00
2017-05-17T18:00:10.771Z,25.80
2017-05-17T18:02:38.984Z,25.90
2017-05-17T18:05:07.216Z,25.70
2017-05-17T18:07:35.427Z,25.60
2017-05-17T18:10:04.378Z,25.50
2017-05-17T18:12:32.595Z,25.40
2017-05-17T18:15:01.543Z,25.30
2017-05-17T18:17:29.760Z,25.30
2017-05-17T18:19:58.714Z,25.20
2017-05-17T18:22:26.931Z,25.20
2017-05-17T18:24:55.875Z,25.10
2017-05-17T18:27:24.105Z,25.00
2017-05-17T18:29:52.342Z,25.00
2017-05-17T18:32:20.553Z,24.90
2017-05-17T18:34:49.499Z,24.80
2017-05-17T18:37:17.712Z,24.80
2017-05-17T18:39:46.676Z,24.70
2017-05-17T18:42:14.892Z,24.70
2017-05-17T18:44:43.109Z,24.60
2017-05-17T18:47:11.324Z,24.50
2017-05-17T18:49:40.291Z,24.50
2017-05-17T18:52:08.508Z,24.40
2017-05-17T18:54:36.729Z,24.30
2017-05-17T18:57:04.943Z,24.20
2017-05-17T18:59:33.167Z,24.20
2017-05-17T19:02:01.371Z,24.20
2017-05-17T19:04:30.331Z,24.10
2017-05-17T19:06:58.546Z,24.10
2017-05-17T19:09:27.495Z,24.10
2017-05-17T19:11:55.708Z,24.00
2017-05-17T19:14:24.660Z,24.00
2017-05-17T19:16:52.881Z,23.90
2017-05-17T19:19:21.116Z,23.90
2017-05-17T19:21:50.079Z,23.90
2017-05-17T19:24:18.300Z,23.90
2017-05-17T19:26:46.542Z,23.80
2017-05-17T19:29:14.752Z,23.70
2017-05-17T19:31:42.959Z,23.70
2017-05-17T19:34:11.179Z,23.70
2017-05-17T19:36:40.124Z,23.60
2017-05-17T19:39:08.427Z,23.60
2017-05-17T19:41:36.639Z,23.50
2017-05-17T19:44:07.173Z,23.40
2017-05-17T19:46:36.188Z,23.40
2017-05-17T19:49:04.785Z,23.30
2017-05-17T19:51:33.031Z,23.30
2017-05-17T19:54:01.248Z,23.20
2017-05-17T19:56:30.557Z,23.10
2017-05-17T19:58:58.799Z,23.10
2017-05-17T20:01:27.779Z,22.90
2017-05-17T20:03:57.420Z,22.80
2017-05-17T20:06:25.639Z,22.60
2017-05-17T20:08:53.856Z,22.40
2017-05-17T20:11:22.071Z,22.20
2017-05-17T20:13:50.293Z,22.10
2017-05-17T20:16:18.537Z,21.80
2017-05-17T20:18:46.739Z,21.60
2017-05-17T20:21:15.707Z,21.40
2017-05-17T20:23:43.921Z,21.30
2017-05-17T20:26:12.153Z,21.10
2017-05-17T20:28:40.368Z,21.00
2017-05-17T20:31:08.583Z,20.90
2017-05-17T20:33:36.803Z,20.80
2017-05-17T20:36:05.760Z,20.80
2017-05-17T20:38:33.977Z,20.80
2017-05-17T20:41:02.242Z,21.00
2017-05-17T20:43:30.426Z,21.20
2017-05-17T20:45:58.648Z,21.10
2017-05-17T20:48:26.859Z,21.00
2017-05-17T20:50:55.823Z,20.70
2017-05-17T20:53:24.035Z,20.60
2017-05-17T20:55:52.254Z,20.50
2017-05-17T20:58:20.467Z,20.40
2017-05-17T21:00:49.429Z,20.20
2017-05-17T21:03:17.655Z,20.20
2017-05-17T21:05:45.867Z,20.10
2017-05-17T21:08:14.079Z,20.10
2017-05-17T21:10:43.032Z,20.00
2017-05-17T21:13:11.244Z,20.00
2017-05-17T21:15:40.214Z,20.10
2017-05-17T21:18:08.448Z,20.10
2017-05-17T21:20:36.667Z,20.00
2017-05-17T21:23:04.875Z,20.00
2017-05-17T21:25:33.101Z,19.90
2017-05-17T21:28:01.308Z,19.80
2017-05-17T21:30:30.271Z,19.70
2017-05-17T21:32:58.479Z,19.70
2017-05-17T21:35:27.440Z,19.90
2017-05-17T21:37:55.651Z,20.10
2017-05-17T21:40:24.612Z,20.10
2017-05-17T21:42:52.828Z,20.10
2017-05-17T21:45:21.043Z,20.10
2017-05-17T21:47:49.256Z,20.10
2017-05-17T21:50:18.204Z,20.10
2017-05-17T21:52:46.423Z,20.30
2017-05-17T21:55:15.393Z,20.50
2017-05-17T21:57:43.608Z,20.50
2017-05-17T22:00:11.815Z,20.50
2017-05-17T22:02:40.040Z,20.50
2017-05-17T22:05:08.996Z,20.50
2017-05-17T22:07:37.215Z,20.40
2017-05-17T22:10:05.428Z,20.20
2017-05-17T22:12:33.644Z,20.20
2017-05-17T22:15:02.595Z,20.10
2017-05-17T22:17:30.815Z,20.30
2017-05-17T22:19:59.763Z,20.30
2017-05-17T22:22:28.046Z,20.30
2017-05-17T22:24:56.346Z,20.30
2017-05-17T22:27:25.004Z,20.20
2017-05-17T22:29:53.230Z,20.20
2017-05-17T22:32:21.440Z,20.10
2017-05-17T22:34:49.655Z,20.10
2017-05-17T22:37:17.863Z,20.00
2017-05-17T22:39:46.819Z,19.90
2017-05-17T22:42:16.732Z,19.70
2017-05-17T22:44:44.977Z,19.40
2017-05-17T22:47:13.185Z,19.30
2017-05-17T22:49:41.404Z,19.00
2017-05-17T22:52:10.362Z,18.90
2017-05-17T22:54:38.576Z,18.80
2017-05-17T22:57:06.799Z,18.70
2017-05-17T22:59:35.007Z,18.50
2017-05-17T23:02:03.968Z,18.40
2017-05-17T23:04:32.175Z,18.30
2017-05-17T23:07:01.128Z,18.20
2017-05-17T23:09:29.336Z,18.10
2017-05-17T23:11:58.295Z,17.90
2017-05-17T23:14:26.511Z,17.90
2017-05-17T23:16:55.471Z,17.70
2017-05-17T23:19:23.675Z,17.60
2017-05-17T23:21:52.632Z,17.50
2017-05-17T23:24:20.848Z,17.50
2017-05-17T23:26:50.488Z,17.40
2017-05-17T23:29:18.704Z,17.30
2017-05-17T23:31:46.917Z,17.20
2017-05-17T23:34:15.148Z,17.20
2017-05-17T23:36:43.348Z,17.20
2017-05-17T23:39:12.309Z,17.10
2017-05-17T23:41:40.518Z,17.10
2017-05-17T23:44:09.468Z,17.00
2017-05-17T23:46:37.679Z,17.00
2017-05-17T23:49:06.641Z,16.80
2017-05-17T23:51:34.843Z,16.80
2017-05-17T23:54:03.824Z,16.80
2017-05-17T23:56:32.779Z,16.80
2017-05-17T23:59:00.989Z,16.80
